Latest Weather Observations for Curtin

IDW60801

Issued at 9:32 am WST Monday 2 February 2015 (issued every 30 minutes, with the page automatically refreshed every 10 minutes)

About weather observations | Map of weather stations | Latest weather observations for WA | Other Formats
Station Details ID: 003080 Name: CURTIN AERO Lat: -17.58 Lon: 123.83 Height: 77.5 m
Data from the previous 72 hours. | See also: Recent months at Curtin
Date/Time
WST
Temp
°C
App
Temp
°C
Dew
Point
Rel
Hum
%
Delta-T
°C
Wind Press
QNH
hPa
Press
MSL
hPa
Rain
since 9 am
mm
Dir
 
Spd
km/h
Gust
km/h
Spd
kts
Gust
kts
02/09:30am 30.2 32.1 24.4 71 4.1 SW 22 28 12 15 1010.7 1010.1 0.0
02/09:00am 29.9 32.2 24.5 73 3.8 SW 20 24 11 13 1010.9 1010.3 -
02/08:30am 29.1 31.9 24.9 78 2.9 WSW 19 26 10 14 1010.9 1010.3 -
02/08:00am 28.4 31.9 24.8 81 2.5 SW 15 20 8 11 1010.8 1010.2 -
02/07:30am 27.6 31.2 24.4 83 2.2 WSW 13 20 7 11 1010.6 1010.0 -
02/07:00am 26.8 30.9 24.6 88 1.5 WSW 11 15 6 8 1010.2 1009.6 1.4
02/06:30am 25.9 29.8 24.3 91 1.1 WSW 11 15 6 8 1009.9 1009.3 1.4
02/06:00am 25.6 29.1 23.6 89 1.4 WSW 11 13 6 7 1009.7 1009.1 1.4
02/05:30am 25.6 29.1 23.5 88 1.4 W 11 13 6 7 1009.2 1008.6 1.4
02/05:00am 25.7 29.2 23.6 88 1.4 WSW 11 13 6 7 1008.9 1008.3 1.4
02/04:30am 25.6 29.1 23.6 89 1.4 WSW 11 13 6 7 1008.5 1007.9 1.4
02/04:00am 25.7 29.5 23.4 87 1.6 W 9 13 5 7 1008.3 1007.7 1.4
02/03:30am 25.9 29.6 23.2 85 1.8 W 9 11 5 6 1008.4 1007.8 1.4
02/03:00am 26.7 30.0 23.2 81 2.4 SE 11 20 6 11 1009.1 1008.5 1.4
02/02:30am 26.2 30.7 24.6 91 1.1 SW 9 11 5 6 1008.5 1007.9 1.4
02/02:00am 26.3 31.1 24.5 90 1.3 SW 7 9 4 5 1008.3 1007.7 1.4
02/01:30am 26.2 31.0 24.2 89 1.4 W 6 7 3 4 1008.3 1007.7 1.4
02/01:00am 26.1 30.5 23.8 87 1.6 W 7 9 4 5 1007.9 1007.3 1.4
02/12:30am 26.3 30.7 23.8 86 1.7 W 7 11 4 6 1008.4 1007.8 1.4
02/12:00am 26.6 30.6 23.7 84 2.0 W 9 11 5 6 1008.9 1008.3 1.4
 
Date/Time
WST
Temp
°C
App
Temp
°C
Dew
Point
Rel
Hum
%
Delta-T
°C
Wind Press
QNH
hPa
Press
MSL
hPa
Rain
since 9 am
mm
Dir
 
Spd
km/h
Gust
km/h
Spd
kts
Gust
kts
01/11:30pm 26.7 30.7 23.8 84 2.0 WSW 9 11 5 6 1009.1 1008.5 1.4
01/11:00pm 27.1 31.4 23.6 81 2.4 W 7 9 4 5 1009.4 1008.8 1.4
01/10:30pm 27.4 32.2 24.5 84 2.0 W 7 11 4 6 1009.7 1009.1 1.4
01/10:00pm 27.1 31.9 24.4 85 1.9 W 7 9 4 5 1009.8 1009.2 1.4
01/09:30pm 26.6 31.4 24.4 88 1.5 WNW 7 9 4 5 1009.7 1009.1 1.4
01/09:00pm 26.2 31.7 24.6 91 1.1 NNW 4 7 2 4 1009.3 1008.7 1.4
01/08:30pm 26.5 31.5 24.5 89 1.4 NW 6 9 3 5 1008.8 1008.2 1.4
01/08:00pm 26.2 30.8 24.1 88 1.5 N 7 11 4 6 1008.4 1007.8 1.4
01/07:30pm 26.2 29.2 23.3 84 2.0 NW 13 15 7 8 1008.2 1007.6 1.4
01/07:00pm 26.9 26.1 22.3 76 3.1 WSW 30 39 16 21 1008.3 1007.7 0.6
01/06:46pm 29.3 30.5 22.5 67 4.6 SW 20 33 11 18 1008.2 1007.6 0.0
01/06:30pm 29.5 33.5 22.7 67 4.6 WSW 6 7 3 4 1007.7 1007.1 0.0
01/06:00pm 30.1 29.7 21.7 60 5.7 W 26 35 14 19 1007.5 1006.9 0.0
01/05:54pm 31.0 32.3 22.6 61 5.8 WSW 20 35 11 19 1007.3 1006.7 0.0
01/05:30pm 33.3 37.4 23.3 55 6.9 SE 7 9 4 5 1007.0 1006.4 0.0
01/05:00pm 33.8 37.5 23.2 54 7.4 WNW 9 11 5 6 1006.8 1006.2 0.0
01/04:30pm 33.8 36.9 22.9 53 7.5 WSW 11 15 6 8 1006.6 1006.0 0.0
01/04:00pm 33.6 37.5 23.6 56 7.0 W 9 13 5 7 1006.2 1005.6 0.0
01/03:30pm 33.7 37.1 23.4 55 7.2 WSW 11 19 6 10 1006.1 1005.5 0.0
01/03:00pm 33.3 36.3 23.3 55 7.0 WSW 13 19 7 10 1006.5 1005.9 0.0
01/02:30pm 33.6 36.5 22.4 52 7.7 WSW 11 17 6 9 1007.0 1006.4 0.0
01/02:00pm 34.6 38.7 23.9 53 7.5 SW 9 15 5 8 1007.3 1006.7 0.0
01/01:30pm 32.9 36.6 23.2 56 6.7 SW 9 17 5 9 1007.8 1007.2 0.0
01/01:00pm 33.1 36.3 23.1 55 6.9 SSW 11 19 6 10 1008.2 1007.6 0.0
01/12:30pm 33.8 37.2 24.1 57 6.8 W 13 20 7 11 1008.7 1008.1 0.0
01/12:00pm 32.8 36.2 23.4 57 6.5 W 11 17 6 9 1009.2 1008.6 0.0
01/11:30am 31.5 35.9 24.4 66 5.0 WSW 9 17 5 9 1009.7 1009.1 0.0
01/11:00am 31.2 34.6 24.1 66 5.0 WSW 13 20 7 11 1010.1 1009.5 0.0
01/10:30am 30.4 32.8 23.6 67 4.7 WSW 17 24 9 13 1010.4 1009.8 0.0
01/10:00am 30.9 33.3 24.3 68 4.6 WSW 19 24 10 13 1010.7 1010.1 0.0
01/09:30am 29.7 32.5 24.3 73 3.8 WSW 17 22 9 12 1010.8 1010.2 0.0
01/09:00am 29.8 32.0 24.2 72 3.9 SW 20 28 11 15 1010.7 1010.1 0.0
01/08:30am 29.0 31.1 24.1 75 3.4 SW 20 30 11 16 1010.9 1010.3 0.0
01/08:00am 29.1 32.3 24.9 78 3.0 WSW 17 22 9 12 1010.7 1010.1 0.0
01/07:30am 28.0 31.4 24.6 82 2.4 WSW 15 19 8 10 1010.3 1009.7 0.0
01/07:00am 27.0 30.7 24.6 87 1.7 WSW 13 19 7 10 1010.1 1009.5 0.0
01/06:30am 26.0 30.7 25.0 94 0.7 WSW 9 13 5 7 1010.1 1009.5 0.0
01/06:00am 25.0 30.2 24.8 99 0.1 WNW 6 7 3 4 1009.9 1009.3 0.0
01/05:30am 24.6 29.4 24.4 99 0.1 WNW 7 9 4 5 1009.3 1008.7 0.0
01/05:00am 24.7 29.5 24.4 98 0.2 WNW 7 9 4 5 1009.1 1008.5 0.0
01/04:30am 24.9 29.3 24.4 97 0.3 WNW 9 11 5 6 1008.7 1008.1 0.0
01/04:00am 25.1 30.0 24.4 96 0.5 W 6 7 3 4 1008.5 1007.9 0.0
01/03:30am 25.3 30.1 24.4 95 0.6 W 7 9 4 5 1008.3 1007.7 0.0
01/03:00am 25.4 30.2 24.4 94 0.7 W 7 9 4 5 1008.0 1007.4 0.0
01/02:30am 25.5 30.2 24.3 93 0.8 WSW 7 9 4 5 1008.1 1007.5 0.0
01/02:00am 25.7 30.0 24.3 92 1.0 W 9 11 5 6 1008.0 1007.4 0.0
01/01:30am 26.0 30.3 24.2 90 1.2 WSW 9 11 5 6 1007.9 1007.3 0.0
01/01:00am 26.2 30.6 24.4 90 1.2 WSW 9 11 5 6 1008.0 1007.4 0.0
01/12:30am 26.4 30.4 24.4 89 1.4 WSW 11 13 6 7 1008.4 1007.8 0.0
01/12:00am 26.6 31.2 25.4 93 0.8 WSW 11 13 6 7 1008.5 1007.9 0.0
 
Date/Time
WST
Temp
°C
App
Temp
°C
Dew
Point
Rel
Hum
%
Delta-T
°C
Wind Press
QNH
hPa
Press
MSL
hPa
Rain
since 9 am
mm
Dir
 
Spd
km/h
Gust
km/h
Spd
kts
Gust
kts
31/11:30pm 26.9 32.6 25.9 94 0.7 WSW 7 9 4 5 1008.6 1008.0 0.0
31/11:00pm 27.2 32.5 25.8 92 1.0 W 9 13 5 7 1008.8 1008.2 0.0
31/10:30pm 27.0 32.4 25.2 90 1.3 WNW 6 9 3 5 1008.9 1008.3 0.0
31/10:00pm 26.7 31.6 24.7 89 1.4 NW 7 7 4 4 1008.8 1008.2 0.0
31/09:30pm 26.8 31.7 24.6 88 1.5 NNW 7 7 4 4 1008.6 1008.0 0.0
31/09:00pm 27.2 32.0 24.5 85 1.9 N 7 9 4 5 1008.3 1007.7 0.0
31/08:30pm 27.6 32.2 24.2 82 2.4 NNW 7 9 4 5 1008.0 1007.4 0.0
31/08:00pm 28.2 33.0 24.4 80 2.6 NNW 7 11 4 6 1007.8 1007.2 0.0
31/07:30pm 28.6 32.9 24.2 77 3.1 NNW 9 13 5 7 1007.5 1006.9 0.0
31/07:00pm 29.4 32.5 23.6 71 4.0 NNW 13 19 7 10 1007.0 1006.4 0.0
31/06:30pm 30.2 33.9 22.6 63 5.2 NW 7 9 4 5 1006.5 1005.9 0.0
31/06:00pm 31.4 35.0 22.4 59 6.2 NW 7 9 4 5 1006.1 1005.5 0.0
31/05:30pm 33.1 37.3 22.5 53 7.3 NNW 4 9 2 5 1005.7 1005.1 0.0
31/05:00pm 33.8 37.3 22.2 50 8.0 W 7 13 4 7 1005.5 1004.9 0.0
31/04:30pm 33.6 36.8 22.4 52 7.7 WNW 9 15 5 8 1005.8 1005.2 0.0
31/04:00pm 33.4 36.6 21.2 48 8.3 WSW 6 7 3 4 1005.8 1005.2 0.0
31/03:30pm 33.7 37.2 22.1 50 7.9 WSW 7 11 4 6 1006.1 1005.5 0.0
31/03:00pm 32.9 35.8 21.1 50 8.0 NNW 7 13 4 7 1006.4 1005.8 0.0
31/02:30pm 33.2 36.4 22.3 52 7.5 NNW 9 17 5 9 1006.7 1006.1 0.0
31/02:00pm 33.0 35.2 21.2 50 8.0 WNW 11 20 6 11 1007.0 1006.4 0.0
31/01:30pm 32.7 35.0 22.8 56 6.8 WSW 15 20 8 11 1007.4 1006.8 0.0
31/01:00pm 31.9 33.6 21.7 54 6.9 SW 15 22 8 12 1007.5 1006.9 0.0
31/12:30pm 31.9 35.0 22.9 59 6.2 WSW 11 19 6 10 1007.8 1007.2 0.0
31/12:00pm 31.5 35.2 22.5 59 6.2 SW 7 11 4 6 1008.1 1007.5 0.0
31/11:30am 30.7 34.5 23.4 65 5.0 SSE 9 13 5 7 1008.6 1008.0 0.0
31/11:00am 30.3 34.1 22.7 64 5.2 WNW 7 13 4 7 1008.9 1008.3 0.0
31/10:30am 30.3 34.4 23.0 65 5.0 WSW 6 9 3 5 1009.3 1008.7 0.0
31/10:00am 28.7 32.1 22.7 70 4.1 E 9 17 5 9 1009.5 1008.9 0.0
31/09:30am 27.8 31.9 23.2 76 3.2 E 7 11 4 6 1009.6 1009.0 0.0
31/09:00am 27.2 31.0 22.8 77 3.0 E 7 11 4 6 1009.9 1009.3 0.0
31/08:30am 26.5 30.0 22.8 80 2.5 SE 9 15 5 8 1010.5 1009.9 0.0
31/08:00am 26.4 29.6 23.7 85 1.9 SE 13 19 7 10 1010.3 1009.7 0.0
31/07:30am 25.4 28.3 23.8 91 1.1 SE 15 20 8 11 1010.0 1009.4 0.0
31/07:00am 25.9 29.1 24.3 91 1.1 SSE 15 20 8 11 1009.7 1009.1 0.0
31/06:30am 25.6 30.6 25.4 99 0.1 S 9 11 5 6 1009.5 1008.9 0.0
31/06:00am 25.4 32.0 25.2 99 0.1 CALM 0 2 0 1 1009.1 1008.5 0.0
31/05:30am 25.3 30.7 25.1 99 0.1 SSW 6 7 3 4 1008.7 1008.1 0.0
31/05:00am 25.3 30.7 25.1 99 0.1 SSW 6 7 3 4 1008.4 1007.8 0.0
31/04:30am 25.0 30.0 24.8 99 0.1 SSW 7 7 4 4 1008.3 1007.7 0.0
31/04:00am 24.8 29.7 24.6 99 0.1 WSW 7 9 4 5 1007.8 1007.2 0.0
31/03:30am 25.0 29.9 24.7 98 0.2 W 7 9 4 5 1007.7 1007.1 0.0
31/03:00am 25.3 30.3 24.8 97 0.3 W 7 11 4 6 1007.8 1007.2 0.0
31/02:30am 25.3 29.9 24.8 97 0.3 W 9 11 5 6 1008.0 1007.4 0.0
31/02:00am 25.2 30.1 24.7 97 0.3 WNW 7 11 4 6 1007.7 1007.1 0.0
31/01:30am 25.3 30.3 24.8 97 0.3 WNW 7 9 4 5 1007.8 1007.2 0.0
31/01:00am 25.3 30.2 24.6 96 0.5 WNW 7 9 4 5 1007.8 1007.2 0.0
31/12:30am 25.4 30.2 24.5 95 0.6 NW 7 9 4 5 1008.0 1007.4 0.0
31/12:00am 25.4 30.4 24.5 95 0.6 N 6 7 3 4 1008.0 1007.4 0.0
 
Date/Time
WST
Temp
°C
App
Temp
°C
Dew
Point
Rel
Hum
%
Delta-T
°C
Wind Press
QNH
hPa
Press
MSL
hPa
Rain
since 9 am
mm
Dir
 
Spd
km/h
Gust
km/h
Spd
kts
Gust
kts
30/11:30pm 25.8 30.8 24.8 94 0.7 NNW 7 11 4 6 1008.0 1007.4 0.0
30/11:00pm 26.1 31.0 24.7 92 1.0 N 7 11 4 6 1008.0 1007.4 0.0
30/10:30pm 26.4 31.1 25.0 92 1.0 NNW 9 13 5 7 1007.9 1007.3 0.0
30/10:00pm 26.3 31.0 24.9 92 1.0 N 9 13 5 7 1008.0 1007.4 0.0
30/09:30pm 26.3 31.2 24.7 91 1.1 NNE 7 9 4 5 1007.7 1007.1 0.0
30/09:00pm 26.4 31.3 24.6 90 1.3 NNE 7 9 4 5 1007.4 1006.8 0.0
30/08:30pm 26.5 30.9 24.5 89 1.4 NNE 9 11 5 6 1007.4 1006.8 0.0
30/08:00pm 26.7 31.5 24.4 87 1.6 NNE 7 9 4 5 1007.1 1006.5 0.0
30/07:30pm 26.9 31.5 24.2 85 1.9 NNE 7 7 4 4 1006.7 1006.1 0.0
30/07:00pm 27.3 32.0 24.0 82 2.3 NNW 6 7 3 4 1006.3 1005.7 0.0
30/06:30pm 27.7 31.9 23.5 78 2.9 NNW 7 11 4 6 1006.0 1005.4 0.0
30/06:00pm 28.1 31.7 23.7 77 3.0 NNW 11 15 6 8 1005.7 1005.1 0.0
30/05:30pm 28.5 32.4 24.3 78 2.9 NNW 11 17 6 9 1005.4 1004.8 0.0
30/05:00pm 29.3 31.9 23.3 70 4.1 NW 15 24 8 13 1005.2 1004.6 0.0
30/04:30pm 30.9 33.6 23.5 64 5.1 NW 15 20 8 11 1005.2 1004.6 0.0
30/04:00pm 30.7 33.9 23.1 64 5.2 NNW 11 17 6 9 1005.4 1004.8 0.0
30/03:30pm 30.7 34.3 23.1 64 5.2 NW 9 15 5 8 1005.5 1004.9 0.0
30/03:00pm 30.8 34.2 22.7 62 5.6 NW 9 17 5 9 1005.5 1004.9 0.0
30/02:30pm 30.8 33.7 23.2 64 5.2 WNW 13 20 7 11 1005.8 1005.2 0.0
30/02:00pm 30.4 34.1 23.3 66 4.9 WNW 9 15 5 8 1006.2 1005.6 0.0
30/01:30pm 30.0 33.4 22.7 65 5.0 WNW 9 17 5 9 1006.4 1005.8 0.0
30/01:00pm 30.1 33.9 22.8 65 5.0 N 7 11 4 6 1006.7 1006.1 0.0
30/12:30pm 29.5 33.3 23.4 69 4.2 N 9 17 5 9 1006.8 1006.2 0.0
30/12:00pm 28.7 31.9 22.4 68 4.3 NNW 9 13 5 7 1007.5 1006.9 0.0
30/11:30am 27.7 30.6 22.4 73 3.6 NNE 11 15 6 8 1008.0 1007.4 0.0
30/11:00am 26.8 29.1 22.0 75 3.2 NE 13 20 7 11 1008.6 1008.0 0.0
30/10:30am 26.3 28.8 21.7 76 3.1 NE 11 17 6 9 1008.9 1008.3 0.0
30/10:00am 25.6 30.0 23.8 90 1.2 N 7 11 4 6 1009.1 1008.5 0.0

Other Formats:

Comma delimited format used in spreadsheet applications
http://www.bom.gov.au/fwo/IDW60801/IDW60801.94204.axf

JavaScript Object Notation format (JSON) in row-major order
http://www.bom.gov.au/fwo/IDW60801/IDW60801.94204.json